Ice Star — OUJK2 — position and weather

sailwx.info

Track history (hours):
 
Tides and Currents Weather Stations Pressure Air Temp Water Temp Dewpoint Dewpoint Depression Visibility Wind Speed Wind Dir Waves Ship Positions

Ice Star

Last reported at 2014-Dec-20 11:33 UTC. Time now 2014-Dec-20 12:14 UTC.
Position N 29°54' E 122°09'.

Length 367 m; draft 14 m.

Type: Ship. MMSI: 220596000.

Date/timePositionNaut miles runAvg speedWind from/ knotsBaromVisibWave heightAir tempDewpointWater temp
2014-Dec-20 11:33N 29°54' E 122°09'1313.0
2014-Dec-20 10:33N 29°57' E 121°55'4 3.4
2014-Dec-20 09:22N 29°57' E 121°50'0 0.0
2014-Dec-20 08:19N 29°57' E 121°50'0 0.0
2014-Dec-20 07:31N 29°57' E 121°50'0 0.0
2014-Dec-20 06:16N 29°57' E 121°50'0 0.0
2014-Dec-20 05:19N 29°57' E 121°50'0 0.0
2014-Dec-20 04:31N 29°57' E 121°50'0 0.0
2014-Dec-20 03:31N 29°57' E 121°50'0 0.0
2014-Dec-20 02:28N 29°57' E 121°50'0 0.0
2014-Dec-20 01:31N 29°57' E 121°50'0 0.0
2014-Dec-20 00:25N 29°57' E 121°50'0 0.0
2014-Dec-19 23:31N 29°57' E 121°50'0 0.0
2014-Dec-19 22:31N 29°57' E 121°50'0 0.0
2014-Dec-19 21:28N 29°57' E 121°50'0 0.0
2014-Dec-19 20:19N 29°57' E 121°50'0 0.0
2014-Dec-19 19:31N 29°57' E 121°50'0 0.0
2014-Dec-19 18:22N 29°57' E 121°50'0 0.0
2014-Dec-19 17:28N 29°57' E 121°50'0 0.0
2014-Dec-19 16:28N 29°57' E 121°50'0 0.4
2014-Dec-19 15:32N 29°57' E 121°51'7 7.4
2014-Dec-19 14:33N 29°58' E 121°59'1312.6
2014-Dec-19 13:33N 29°52' E 122°12'1111.1
2014-Dec-19 12:33N 29°45' E 122°21'9 8.9
2014-Dec-19 11:33N 29°44' E 122°31'1111.2
2014-Dec-19 10:33N 29°51' E 122°42'4212.4
2014-Dec-19 07:08N 30°29' E 123°04'351 9.8
2014-Dec-17 19:25N 35°57' E 120°38'1011.9
2014-Dec-17 18:33N 35°60' E 120°26'1010.2
2014-Dec-17 17:33N 36°01' E 120°13'1 0.7
2014-Dec-17 16:21N 36°00' E 120°12'0 0.0
2014-Dec-16 21:27N 36°00' E 120°12'0 0.0
2014-Dec-16 15:05N 36°00' E 120°12'2 4.1
2014-Dec-16 14:33N 36°02' E 120°14'1110.5
2014-Dec-16 13:33N 36°00' E 120°27'1211.6
2014-Dec-16 12:33N 35°58' E 120°41'1 0.2
2014-Dec-16 09:33N 35°58' E 120°42'5 5.0
2014-Dec-16 08:33N 35°55' E 120°47'  
Track history (hours):
 
Tides and Currents Weather Stations Pressure Air Temp Water Temp Dewpoint Dewpoint Depression Visibility Wind Speed Wind Dir Waves Ship Positions

Ice Star

Last reported at 2014-Dec-20 11:33 UTC. Time now 2014-Dec-20 12:14 UTC.
Position N 29°54' E 122°09'.

Length 367 m; draft 14 m.

Type: Ship. MMSI: 220596000.

Date/timePositionNaut miles runAvg speedWind from/ knotsBaromVisibWave heightAir tempDewpointWater temp
2014-Dec-20 11:33N 29°54' E 122°09'1313.0
2014-Dec-20 10:33N 29°57' E 121°55'4 3.4
2014-Dec-20 09:22N 29°57' E 121°50'0 0.0
2014-Dec-20 08:19N 29°57' E 121°50'0 0.0
2014-Dec-20 07:31N 29°57' E 121°50'0 0.0
2014-Dec-20 06:16N 29°57' E 121°50'0 0.0
2014-Dec-20 05:19N 29°57' E 121°50'0 0.0
2014-Dec-20 04:31N 29°57' E 121°50'0 0.0
2014-Dec-20 03:31N 29°57' E 121°50'0 0.0
2014-Dec-20 02:28N 29°57' E 121°50'0 0.0
2014-Dec-20 01:31N 29°57' E 121°50'0 0.0
2014-Dec-20 00:25N 29°57' E 121°50'0 0.0
2014-Dec-19 23:31N 29°57' E 121°50'0 0.0
2014-Dec-19 22:31N 29°57' E 121°50'0 0.0
2014-Dec-19 21:28N 29°57' E 121°50'0 0.0
2014-Dec-19 20:19N 29°57' E 121°50'0 0.0
2014-Dec-19 19:31N 29°57' E 121°50'0 0.0
2014-Dec-19 18:22N 29°57' E 121°50'0 0.0
2014-Dec-19 17:28N 29°57' E 121°50'0 0.0
2014-Dec-19 16:28N 29°57' E 121°50'0 0.4
2014-Dec-19 15:32N 29°57' E 121°51'7 7.4
2014-Dec-19 14:33N 29°58' E 121°59'1312.6
2014-Dec-19 13:33N 29°52' E 122°12'1111.1
2014-Dec-19 12:33N 29°45' E 122°21'9 8.9
2014-Dec-19 11:33N 29°44' E 122°31'1111.2
2014-Dec-19 10:33N 29°51' E 122°42'4212.4
2014-Dec-19 07:08N 30°29' E 123°04'351 9.8
2014-Dec-17 19:25N 35°57' E 120°38'1011.9
2014-Dec-17 18:33N 35°60' E 120°26'1010.2
2014-Dec-17 17:33N 36°01' E 120°13'1 0.7
2014-Dec-17 16:21N 36°00' E 120°12'0 0.0
2014-Dec-16 21:27N 36°00' E 120°12'0 0.0
2014-Dec-16 15:05N 36°00' E 120°12'2 4.1
2014-Dec-16 14:33N 36°02' E 120°14'1110.5
2014-Dec-16 13:33N 36°00' E 120°27'1211.6
2014-Dec-16 12:33N 35°58' E 120°41'1 0.2
2014-Dec-16 09:33N 35°58' E 120°42'5 5.0
2014-Dec-16 08:33N 35°55' E 120°47'  

Dump ship's entire track history